createdAt,value
2017-09-16T00:00:23.133Z,97.55
2017-09-16T00:01:23.098Z,97.55
2017-09-16T00:02:23.063Z,98.21
2017-09-16T00:03:23.028Z,98.21
2017-09-16T00:04:22.992Z,98.59
2017-09-16T00:05:22.957Z,98.59
2017-09-16T00:06:22.922Z,98.97
2017-09-16T00:07:22.887Z,98.59
2017-09-16T00:08:22.851Z,98.79
2017-09-16T00:09:22.817Z,99.07
2017-09-16T00:10:22.782Z,98.79
2017-09-16T00:11:22.747Z,98.97
2017-09-16T00:12:22.711Z,98.97
2017-09-16T00:13:22.676Z,98.97
2017-09-16T00:14:22.641Z,99.16
2017-09-16T00:15:22.607Z,99.26
2017-09-16T00:16:22.570Z,98.69
2017-09-16T00:17:22.535Z,98.59
2017-09-16T00:18:22.499Z,98.59
2017-09-16T00:19:22.464Z,98.79
2017-09-16T00:20:22.429Z,98.69
2017-09-16T00:21:22.392Z,98.97
2017-09-16T00:22:22.358Z,98.79
2017-09-16T00:23:22.323Z,99.07
2017-09-16T00:24:22.287Z,99.16
2017-09-16T00:25:22.253Z,98.50
2017-09-16T00:26:22.217Z,99.02
2017-09-16T00:27:22.186Z,98.69
2017-09-16T00:28:22.147Z,98.31
2017-09-16T00:29:22.110Z,98.16
2017-09-16T00:30:22.074Z,98.21
2017-09-16T00:31:22.040Z,98.45
2017-09-16T00:32:22.005Z,97.88
2017-09-16T00:33:21.968Z,99.02
2017-09-16T00:34:21.933Z,98.54
2017-09-16T00:35:21.897Z,99.21
2017-09-16T00:36:21.863Z,99.58
2017-09-16T00:37:21.827Z,99.87
2017-09-16T00:38:21.792Z,99.77
2017-09-16T00:39:21.755Z,99.99
2017-09-16T00:40:21.721Z,99.99
2017-09-16T00:41:21.684Z,99.77
2017-09-16T00:42:21.651Z,99.99
2017-09-16T00:43:21.614Z,99.97
2017-09-16T00:44:21.579Z,99.77
2017-09-16T00:45:21.543Z,99.58
2017-09-16T00:46:21.507Z,99.49
2017-09-16T00:47:21.472Z,99.97
2017-09-16T00:48:21.436Z,99.77
2017-09-16T00:49:21.400Z,99.97
2017-09-16T00:50:21.365Z,99.73
2017-09-16T00:51:21.328Z,99.83
2017-09-16T00:52:21.293Z,99.64
2017-09-16T00:53:21.257Z,98.88
2017-09-16T00:54:21.222Z,99.73
2017-09-16T00:55:21.185Z,99.73
2017-09-16T00:56:21.151Z,99.54
2017-09-16T00:57:21.116Z,99.16
2017-09-16T00:58:21.077Z,99.16
2017-09-16T00:59:21.039Z,99.11
2017-09-16T01:00:21.024Z,99.64
2017-09-16T01:01:20.970Z,99.02
2017-09-16T01:02:20.937Z,99.77
2017-09-16T01:03:20.900Z,99.58
2017-09-16T01:04:20.866Z,99.02
2017-09-16T01:05:20.830Z,99.40
2017-09-16T01:06:20.793Z,99.49
2017-09-16T01:07:20.757Z,99.02
2017-09-16T01:08:20.723Z,99.97
2017-09-16T01:09:20.686Z,99.68
2017-09-16T01:10:20.651Z,99.97
2017-09-16T01:11:20.616Z,99.77
2017-09-16T01:12:20.580Z,99.87
2017-09-16T01:13:20.544Z,99.02
2017-09-16T01:14:20.508Z,99.49
2017-09-16T01:15:20.473Z,99.02
2017-09-16T01:16:20.439Z,99.77
2017-09-16T01:17:20.400Z,99.40
2017-09-16T01:18:20.366Z,99.68
2017-09-16T01:19:20.330Z,99.40
2017-09-16T01:20:20.295Z,99.49
2017-09-16T01:21:20.258Z,99.02
2017-09-16T01:22:20.222Z,99.11
2017-09-16T01:23:20.188Z,99.77
2017-09-16T01:24:20.151Z,99.30
2017-09-16T01:25:20.116Z,99.40
2017-09-16T01:26:20.081Z,99.11
2017-09-16T01:27:20.046Z,99.11
2017-09-16T01:28:20.009Z,99.11
2017-09-16T01:29:19.973Z,99.21
2017-09-16T01:30:19.938Z,99.77
2017-09-16T01:31:19.904Z,99.77
2017-09-16T01:32:19.866Z,99.21
2017-09-16T01:33:19.831Z,98.64
2017-09-16T01:34:19.797Z,98.92
2017-09-16T01:35:19.762Z,97.97
2017-09-16T01:36:19.727Z,97.97
2017-09-16T01:37:19.690Z,98.26
2017-09-16T01:38:19.655Z,98.16
2017-09-16T01:39:19.619Z,98.26
2017-09-16T01:40:19.584Z,97.88
2017-09-16T01:41:19.547Z,98.83
2017-09-16T01:42:19.513Z,98.54
2017-09-16T01:43:19.479Z,98.45
2017-09-16T01:44:19.441Z,99.21
2017-09-16T01:45:19.407Z,98.92
2017-09-16T01:46:19.371Z,98.16
2017-09-16T01:47:19.335Z,97.45
2017-09-16T01:48:19.300Z,97.55
2017-09-16T01:49:19.262Z,97.74
2017-09-16T01:50:19.229Z,97.64
2017-09-16T01:51:19.193Z,97.45
2017-09-16T01:52:19.158Z,97.92
2017-09-16T01:53:19.122Z,97.36
2017-09-16T01:54:19.089Z,97.92
2017-09-16T01:55:19.050Z,97.74
2017-09-16T01:56:19.016Z,98.21
2017-09-16T01:57:18.978Z,97.83
2017-09-16T01:58:18.943Z,98.21
2017-09-16T01:59:18.926Z,98.21
2017-09-16T02:00:18.872Z,97.92
2017-09-16T02:01:18.836Z,98.87
2017-09-16T02:02:18.806Z,98.87
2017-09-16T02:03:18.772Z,99.26
2017-09-16T02:04:18.729Z,99.16
2017-09-16T02:05:18.693Z,99.26
2017-09-16T02:06:18.657Z,99.26
2017-09-16T02:07:18.622Z,99.35
2017-09-16T02:08:18.587Z,99.26
2017-09-16T02:09:18.548Z,99.44
2017-09-16T02:10:18.514Z,99.99
2017-09-16T02:11:18.664Z,99.99
2017-09-16T02:12:18.443Z,99.99
2017-09-16T02:13:18.406Z,99.99
2017-09-16T02:14:18.363Z,99.99
2017-09-16T02:15:18.336Z,99.99
2017-09-16T02:16:18.298Z,99.99
2017-09-16T02:17:18.263Z,99.63
2017-09-16T02:18:18.226Z,99.99
2017-09-16T02:19:18.189Z,99.99
2017-09-16T02:20:18.154Z,99.99
2017-09-16T02:21:18.118Z,99.99
2017-09-16T02:22:18.081Z,99.54
2017-09-16T02:23:18.237Z,99.99
2017-09-16T02:24:18.010Z,99.99
2017-09-16T02:25:17.973Z,99.99
2017-09-16T02:26:18.239Z,99.99
2017-09-16T02:27:17.901Z,99.99
2017-09-16T02:28:17.866Z,99.99
2017-09-16T02:29:17.829Z,99.99
2017-09-16T02:30:17.793Z,99.99
2017-09-16T02:31:17.758Z,99.99
2017-09-16T02:32:17.722Z,99.99
2017-09-16T02:33:17.687Z,99.99
2017-09-16T02:34:17.649Z,99.99
2017-09-16T02:35:17.614Z,99.99
2017-09-16T02:36:17.577Z,99.99
2017-09-16T02:37:17.543Z,99.99
2017-09-16T02:38:17.504Z,99.99
2017-09-16T02:39:17.468Z,99.99
2017-09-16T02:40:17.432Z,99.99
2017-09-16T02:41:17.396Z,99.99
2017-09-16T02:42:17.360Z,99.99
2017-09-16T02:43:17.325Z,99.99
2017-09-16T02:44:17.288Z,99.99
2017-09-16T02:45:17.253Z,99.99
2017-09-16T02:46:17.215Z,99.99
2017-09-16T02:47:17.178Z,99.99
2017-09-16T02:48:17.144Z,99.99
2017-09-16T02:49:17.106Z,99.99
2017-09-16T02:50:17.072Z,99.99
2017-09-16T02:51:17.034Z,99.99
2017-09-16T02:52:16.996Z,99.99
2017-09-16T02:53:16.960Z,99.99
2017-09-16T02:54:16.925Z,99.99
2017-09-16T02:55:16.888Z,99.99
2017-09-16T02:56:16.853Z,99.99
2017-09-16T02:57:16.816Z,99.99
2017-09-16T02:58:16.782Z,99.99
2017-09-16T02:59:16.743Z,99.99
2017-09-16T03:00:16.707Z,99.99
2017-09-16T03:01:16.670Z,99.99
2017-09-16T03:02:16.633Z,99.99
2017-09-16T03:03:16.599Z,99.99
2017-09-16T03:04:16.562Z,99.99
2017-09-16T03:05:16.527Z,99.99
2017-09-16T03:06:16.489Z,99.99
2017-09-16T03:07:16.457Z,99.99
2017-09-16T03:08:16.418Z,99.99
2017-09-16T03:09:16.391Z,99.99
2017-09-16T03:10:16.345Z,99.99
2017-09-16T03:11:16.310Z,99.99
2017-09-16T03:12:16.273Z,99.99
2017-09-16T03:13:16.236Z,99.99
2017-09-16T03:14:16.200Z,99.99
2017-09-16T03:15:16.165Z,99.99
2017-09-16T03:16:16.129Z,99.99
2017-09-16T03:17:16.092Z,99.77
2017-09-16T03:18:16.056Z,99.58
2017-09-16T03:19:16.020Z,99.02
2017-09-16T03:20:15.986Z,98.83
2017-09-16T03:21:15.948Z,99.40
2017-09-16T03:22:15.912Z,99.30
2017-09-16T03:23:15.882Z,99.21
2017-09-16T03:24:15.841Z,99.87
2017-09-16T03:25:16.024Z,99.58
2017-09-16T03:26:15.770Z,99.99
2017-09-16T03:27:15.727Z,99.99
2017-09-16T03:28:15.697Z,99.99
2017-09-16T03:29:15.662Z,99.99
2017-09-16T03:30:15.628Z,99.99
2017-09-16T03:31:15.589Z,99.99
2017-09-16T03:32:15.554Z,99.87
2017-09-16T03:33:15.524Z,99.87
2017-09-16T03:34:15.482Z,99.99
2017-09-16T03:35:15.450Z,99.87
2017-09-16T03:36:15.413Z,99.99
2017-09-16T03:37:15.374Z,99.99
2017-09-16T03:38:15.341Z,99.58
2017-09-16T03:39:15.304Z,99.99
2017-09-16T03:40:15.268Z,99.99
2017-09-16T03:41:15.233Z,99.99
2017-09-16T03:42:15.195Z,99.99
2017-09-16T03:43:15.161Z,99.99
2017-09-16T03:44:15.125Z,99.77
2017-09-16T03:45:15.088Z,99.99
2017-09-16T03:46:15.053Z,99.97
2017-09-16T03:47:15.017Z,99.87
2017-09-16T03:48:14.983Z,99.73
2017-09-16T03:49:14.947Z,99.99
2017-09-16T03:50:14.910Z,99.99
2017-09-16T03:51:14.872Z,99.99
2017-09-16T03:52:14.840Z,99.99
2017-09-16T03:53:14.803Z,99.99
2017-09-16T03:54:14.767Z,99.99
2017-09-16T03:55:14.733Z,99.99
2017-09-16T03:56:14.695Z,99.99
2017-09-16T03:57:14.659Z,99.63
2017-09-16T03:58:14.624Z,99.99
2017-09-16T03:59:14.588Z,99.99
2017-09-16T04:00:14.553Z,99.99
2017-09-16T04:01:14.517Z,99.99
2017-09-16T04:02:14.481Z,99.99
2017-09-16T04:03:14.444Z,99.99
2017-09-16T04:04:14.413Z,99.99
2017-09-16T04:05:14.373Z,99.99
2017-09-16T04:06:14.337Z,99.99
2017-09-16T04:07:14.302Z,99.99
2017-09-16T04:08:14.266Z,99.99
2017-09-16T04:09:14.229Z,99.99
2017-09-16T04:10:14.193Z,99.99
2017-09-16T04:11:14.236Z,99.99
2017-09-16T04:12:14.122Z,99.99
2017-09-16T04:13:14.082Z,99.99
2017-09-16T04:14:14.050Z,99.99
2017-09-16T04:15:14.014Z,99.99
2017-09-16T04:16:13.983Z,99.99
2017-09-16T04:17:13.942Z,99.99
2017-09-16T04:18:13.906Z,99.99
2017-09-16T04:19:13.870Z,99.99
2017-09-16T04:20:13.836Z,99.99
2017-09-16T04:21:13.797Z,99.99
2017-09-16T04:22:13.761Z,99.99
2017-09-16T04:23:13.726Z,99.99
2017-09-16T04:24:13.691Z,99.99
2017-09-16T04:25:13.653Z,99.99
2017-09-16T04:26:13.620Z,99.99
2017-09-16T04:27:13.581Z,99.99
2017-09-16T04:28:13.544Z,99.99
2017-09-16T04:29:13.507Z,99.99
2017-09-16T04:30:13.472Z,99.99
2017-09-16T04:31:13.437Z,99.99
2017-09-16T04:32:13.402Z,99.99
2017-09-16T04:33:13.365Z,99.99
2017-09-16T04:34:13.330Z,99.99
2017-09-16T04:35:13.295Z,99.99
2017-09-16T04:36:13.255Z,99.99
2017-09-16T04:37:13.217Z,99.99
2017-09-16T04:38:13.183Z,99.99
2017-09-16T04:39:13.174Z,99.99
2017-09-16T04:40:13.110Z,99.99
2017-09-16T04:41:13.073Z,99.99
2017-09-16T04:42:13.037Z,99.99
2017-09-16T04:43:13.003Z,99.99
2017-09-16T04:44:12.966Z,99.99
2017-09-16T04:45:12.930Z,99.99
2017-09-16T04:46:12.893Z,99.73
2017-09-16T04:47:12.891Z,99.54
2017-09-16T04:48:12.822Z,99.91
2017-09-16T04:49:12.784Z,99.73
2017-09-16T04:50:12.749Z,99.26
2017-09-16T04:51:12.713Z,99.91
2017-09-16T04:52:12.676Z,99.82
2017-09-16T04:53:12.641Z,99.54
2017-09-16T04:54:12.604Z,99.99
2017-09-16T04:55:12.569Z,99.99
2017-09-16T04:56:12.684Z,99.99
2017-09-16T04:57:12.496Z,99.99
2017-09-16T04:58:12.461Z,99.82
2017-09-16T04:59:12.423Z,99.99
2017-09-16T05:00:12.388Z,99.99
2017-09-16T05:01:12.351Z,99.99
2017-09-16T05:02:12.316Z,99.99
2017-09-16T05:03:12.280Z,99.99
2017-09-16T05:04:12.243Z,99.99
2017-09-16T05:05:12.205Z,99.99
2017-09-16T05:06:12.173Z,99.87
2017-09-16T05:07:12.134Z,99.99
2017-09-16T05:08:12.098Z,99.96
2017-09-16T05:09:12.061Z,99.99
2017-09-16T05:10:12.025Z,99.99
2017-09-16T05:11:11.988Z,99.99
2017-09-16T05:12:11.954Z,99.87
2017-09-16T05:13:11.918Z,99.99
2017-09-16T05:14:11.881Z,99.99
2017-09-16T05:15:11.846Z,99.99
2017-09-16T05:16:11.810Z,99.99
2017-09-16T05:17:11.774Z,99.99
2017-09-16T05:18:11.735Z,99.99
2017-09-16T05:19:11.698Z,99.99
2017-09-16T05:20:11.669Z,99.99
2017-09-16T05:21:11.627Z,99.99
2017-09-16T05:22:11.590Z,99.99
2017-09-16T05:23:11.554Z,99.99
2017-09-16T05:24:11.520Z,99.99
2017-09-16T05:25:11.483Z,99.99
2017-09-16T05:26:11.447Z,99.99
2017-09-16T05:27:11.410Z,99.99
2017-09-16T05:28:11.374Z,99.99
2017-09-16T05:29:11.338Z,99.99
2017-09-16T05:30:11.307Z,99.99
2017-09-16T05:31:11.265Z,99.99
2017-09-16T05:32:11.228Z,99.99
2017-09-16T05:33:11.193Z,99.99
2017-09-16T05:34:11.157Z,99.99
2017-09-16T05:35:11.120Z,99.99
2017-09-16T05:36:11.697Z,99.99
2017-09-16T05:37:11.049Z,99.99
2017-09-16T05:38:11.013Z,99.99
2017-09-16T05:39:10.977Z,99.99
2017-09-16T05:40:10.941Z,99.99
2017-09-16T05:41:10.904Z,99.99
2017-09-16T05:42:10.868Z,99.99
2017-09-16T05:43:10.833Z,99.99
2017-09-16T05:44:10.797Z,99.99
2017-09-16T05:45:10.763Z,99.99
2017-09-16T05:46:10.726Z,99.99
2017-09-16T05:47:10.693Z,99.99
2017-09-16T05:48:10.654Z,99.99
2017-09-16T05:49:10.616Z,99.99
2017-09-16T05:50:10.584Z,99.83
2017-09-16T05:51:10.549Z,99.92
2017-09-16T05:52:10.509Z,99.64
2017-09-16T05:53:10.478Z,98.02
2017-09-16T05:54:10.441Z,97.55
2017-09-16T05:55:10.407Z,96.69
2017-09-16T05:56:10.378Z,96.88
2017-09-16T05:57:10.336Z,96.60
2017-09-16T05:58:10.307Z,96.98
2017-09-16T05:59:10.267Z,96.93
2017-09-16T06:00:10.232Z,96.74
2017-09-16T06:01:10.196Z,96.74
2017-09-16T06:02:10.162Z,97.12
2017-09-16T06:03:10.128Z,96.93
2017-09-16T06:04:10.093Z,97.12
2017-09-16T06:05:10.058Z,97.60
2017-09-16T06:06:10.023Z,97.22
2017-09-16T06:07:09.989Z,95.98
2017-09-16T06:08:09.955Z,96.50
2017-09-16T06:09:09.921Z,95.65
2017-09-16T06:10:09.886Z,94.98
2017-09-16T06:11:09.852Z,94.98
2017-09-16T06:12:09.818Z,94.60
2017-09-16T06:13:09.794Z,94.42
2017-09-16T06:14:09.749Z,94.32
2017-09-16T06:15:09.716Z,94.27
2017-09-16T06:16:09.682Z,93.98
2017-09-16T06:17:09.647Z,93.32
2017-09-16T06:18:09.613Z,92.56
2017-09-16T06:19:09.579Z,92.46
2017-09-16T06:20:09.546Z,92.65
2017-09-16T06:21:09.517Z,91.80
2017-09-16T06:22:09.479Z,92.27
2017-09-16T06:23:09.446Z,91.94
2017-09-16T06:24:09.410Z,91.65
2017-09-16T06:25:09.501Z,91.84
2017-09-16T06:26:09.346Z,91.08
2017-09-16T06:27:09.311Z,90.13
2017-09-16T06:28:09.285Z,89.47
2017-09-16T06:29:09.246Z,89.08
2017-09-16T06:30:09.213Z,89.89
2017-09-16T06:31:09.178Z,89.32
2017-09-16T06:32:09.146Z,89.41
2017-09-16T06:33:09.114Z,89.22
2017-09-16T06:34:09.079Z,89.13
2017-09-16T06:35:09.047Z,88.65
2017-09-16T06:36:09.027Z,87.79
2017-09-16T06:37:08.983Z,87.79
2017-09-16T06:38:08.949Z,87.51
2017-09-16T06:39:08.917Z,87.84
2017-09-16T06:40:08.885Z,87.65
2017-09-16T06:41:08.852Z,86.22
2017-09-16T06:42:08.819Z,86.41
2017-09-16T06:43:08.787Z,85.36
2017-09-16T06:44:09.228Z,84.83
2017-09-16T06:45:08.724Z,84.74
2017-09-16T06:46:08.692Z,84.36
2017-09-16T06:47:08.660Z,83.78
2017-09-16T06:48:08.627Z,83.59
2017-09-16T06:49:08.594Z,83.59
2017-09-16T06:50:08.557Z,83.69
2017-09-16T06:51:08.532Z,82.78
2017-09-16T06:52:08.501Z,83.25
2017-09-16T06:53:08.468Z,82.68
2017-09-16T06:54:08.449Z,82.78
2017-09-16T06:55:08.419Z,81.73
2017-09-16T06:56:08.375Z,81.63
2017-09-16T06:57:08.343Z,81.82
2017-09-16T06:58:08.313Z,81.63
2017-09-16T06:59:08.283Z,81.38
2017-09-16T07:00:08.257Z,80.91
2017-09-16T07:01:08.220Z,79.48
2017-09-16T07:02:08.190Z,79.38
2017-09-16T07:03:08.159Z,78.91
2017-09-16T07:04:08.130Z,79.28
2017-09-16T07:05:08.099Z,79.86
2017-09-16T07:06:08.069Z,79.00
2017-09-16T07:07:08.040Z,79.67
2017-09-16T07:08:08.180Z,78.91
2017-09-16T07:09:07.984Z,79.00
2017-09-16T07:10:07.953Z,79.57
2017-09-16T07:11:07.923Z,78.43
2017-09-16T07:12:07.894Z,77.19
2017-09-16T07:13:07.866Z,77.28
2017-09-16T07:14:07.837Z,77.23
2017-09-16T07:15:07.811Z,77.67
2017-09-16T07:16:07.778Z,77.67
2017-09-16T07:17:08.003Z,77.89
2017-09-16T07:18:07.722Z,77.61
2017-09-16T07:19:07.696Z,76.75
2017-09-16T07:20:07.666Z,79.14
2017-09-16T07:21:07.638Z,79.71
2017-09-16T07:22:07.612Z,79.36
2017-09-16T07:23:07.583Z,76.21
2017-09-16T07:24:07.555Z,74.78
2017-09-16T07:25:07.526Z,75.83
2017-09-16T07:26:07.500Z,74.11
2017-09-16T07:27:07.480Z,72.58
2017-09-16T07:28:07.451Z,72.68
2017-09-16T07:29:07.418Z,72.72
2017-09-16T07:30:07.393Z,73.39
2017-09-16T07:31:07.363Z,72.33
2017-09-16T07:32:07.338Z,71.67
2017-09-16T07:33:07.313Z,71.57
2017-09-16T07:34:07.284Z,71.28
2017-09-16T07:35:07.290Z,70.90
2017-09-16T07:36:07.234Z,70.56
2017-09-16T07:37:07.206Z,70.56
2017-09-16T07:38:07.184Z,69.64
2017-09-16T07:39:07.156Z,68.96
2017-09-16T07:40:07.132Z,67.91
2017-09-16T07:41:07.104Z,68.49
2017-09-16T07:42:07.080Z,68.96
2017-09-16T07:43:07.059Z,69.54
2017-09-16T07:44:07.027Z,69.86
2017-09-16T07:45:07.003Z,69.76
2017-09-16T07:46:06.981Z,68.42
2017-09-16T07:47:06.957Z,67.56
2017-09-16T07:48:06.933Z,68.23
2017-09-16T07:49:06.907Z,67.31
2017-09-16T07:50:07.796Z,68.07
2017-09-16T07:51:06.858Z,68.65
2017-09-16T07:52:06.836Z,68.74
2017-09-16T07:53:06.812Z,67.31
2017-09-16T07:54:06.788Z,66.96
2017-09-16T07:55:06.765Z,67.05
2017-09-16T07:56:06.740Z,64.76
2017-09-16T07:57:06.717Z,67.25
2017-09-16T07:58:06.693Z,64.56
2017-09-16T07:59:06.672Z,62.84
2017-09-16T08:00:06.650Z,62.30
2017-09-16T08:01:06.625Z,62.10
2017-09-16T08:02:06.603Z,62.87
2017-09-16T08:03:06.581Z,63.64
2017-09-16T08:04:06.558Z,63.16
2017-09-16T08:05:06.536Z,63.45
2017-09-16T08:06:06.513Z,62.13
2017-09-16T08:07:06.490Z,61.56
2017-09-16T08:08:06.469Z,60.05
2017-09-16T08:09:06.445Z,61.69
2017-09-16T08:10:06.424Z,60.15
2017-09-16T08:11:06.403Z,60.72
2017-09-16T08:12:06.380Z,60.05
2017-09-16T08:13:06.358Z,59.19
2017-09-16T08:14:06.335Z,58.84
2017-09-16T08:15:06.315Z,58.26
2017-09-16T08:16:06.293Z,58.26
2017-09-16T08:17:06.272Z,59.12
2017-09-16T08:18:06.249Z,57.88
2017-09-16T08:19:06.229Z,57.52
2017-09-16T08:20:06.209Z,57.43
2017-09-16T08:21:06.188Z,57.62
2017-09-16T08:22:06.166Z,56.56
2017-09-16T08:23:06.146Z,56.46
2017-09-16T08:24:06.124Z,55.41
2017-09-16T08:25:06.103Z,55.44
2017-09-16T08:26:06.083Z,56.91
2017-09-16T08:27:06.062Z,55.66
2017-09-16T08:28:06.042Z,54.82
2017-09-16T08:29:06.020Z,53.35
2017-09-16T08:30:06.003Z,53.47
2017-09-16T08:31:05.981Z,54.05
2017-09-16T08:32:05.963Z,53.59
2017-09-16T08:33:05.940Z,54.00
2017-09-16T08:34:05.920Z,51.53
2017-09-16T08:35:05.901Z,51.05
2017-09-16T08:36:05.882Z,49.99
2017-09-16T08:37:05.861Z,49.22
2017-09-16T08:38:06.031Z,49.53
2017-09-16T08:39:05.822Z,48.59
2017-09-16T08:40:05.804Z,47.34
2017-09-16T08:41:05.784Z,48.03
2017-09-16T08:42:05.764Z,47.48
2017-09-16T08:43:05.745Z,45.75
2017-09-16T08:44:05.729Z,44.32
2017-09-16T08:45:05.707Z,43.26
2017-09-16T08:46:05.689Z,42.87
2017-09-16T08:47:05.671Z,42.29
2017-09-16T08:48:05.664Z,42.58
2017-09-16T08:49:05.633Z,43.04
2017-09-16T08:50:05.616Z,43.62
2017-09-16T08:51:05.598Z,43.93
2017-09-16T08:52:05.579Z,42.29
2017-09-16T08:53:05.561Z,42.48
2017-09-16T08:54:05.545Z,42.19
2017-09-16T08:55:05.525Z,42.31
2017-09-16T08:56:05.507Z,41.83
2017-09-16T08:57:05.487Z,42.70
2017-09-16T08:58:05.468Z,42.82
2017-09-16T08:59:05.452Z,42.14
2017-09-16T09:00:05.437Z,42.72
2017-09-16T09:01:05.415Z,42.50
2017-09-16T09:02:05.399Z,42.89
2017-09-16T09:03:05.380Z,41.56
2017-09-16T09:04:05.363Z,40.30
2017-09-16T09:05:05.345Z,39.84
2017-09-16T09:06:05.326Z,38.68
2017-09-16T09:07:05.308Z,38.97
2017-09-16T09:08:05.291Z,38.56
2017-09-16T09:09:05.271Z,41.08
2017-09-16T09:10:05.256Z,40.07
2017-09-16T09:11:05.238Z,38.81
2017-09-16T09:12:05.219Z,40.65
2017-09-16T09:13:05.297Z,42.29
2017-09-16T09:14:05.183Z,42.94
2017-09-16T09:15:05.166Z,43.74
2017-09-16T09:16:05.147Z,42.39
2017-09-16T09:17:05.129Z,42.58
2017-09-16T09:18:05.111Z,41.71
2017-09-16T09:19:05.093Z,40.94
2017-09-16T09:20:05.076Z,41.63
2017-09-16T09:21:05.056Z,40.86
2017-09-16T09:22:05.040Z,41.23
2017-09-16T09:23:05.021Z,41.42
2017-09-16T09:24:05.005Z,42.36
2017-09-16T09:25:04.986Z,42.36
2017-09-16T09:26:04.967Z,42.97
2017-09-16T09:27:04.950Z,42.19
2017-09-16T09:28:04.931Z,41.23
2017-09-16T09:29:04.913Z,40.82
2017-09-16T09:30:04.895Z,40.80
2017-09-16T09:31:04.876Z,40.99
2017-09-16T09:32:04.859Z,41.50
2017-09-16T09:33:04.838Z,42.15
2017-09-16T09:34:04.818Z,42.61
2017-09-16T09:35:04.801Z,43.94
2017-09-16T09:36:04.783Z,44.45
2017-09-16T09:37:04.761Z,44.35
2017-09-16T09:38:04.743Z,42.71
2017-09-16T09:39:04.724Z,43.48
2017-09-16T09:40:04.704Z,44.45
2017-09-16T09:41:04.687Z,42.05
2017-09-16T09:42:04.665Z,41.91
2017-09-16T09:43:04.657Z,40.65
2017-09-16T09:44:04.630Z,41.15
2017-09-16T09:45:04.609Z,39.14
2017-09-16T09:46:04.591Z,39.36
2017-09-16T09:47:04.574Z,38.31
2017-09-16T09:48:04.556Z,38.12
2017-09-16T09:49:04.537Z,36.00
2017-09-16T09:50:04.519Z,35.91
2017-09-16T09:51:04.504Z,35.52
2017-09-16T09:52:04.488Z,34.65
2017-09-16T09:53:04.466Z,34.28
2017-09-16T09:54:04.449Z,34.38
2017-09-16T09:55:04.433Z,34.86
2017-09-16T09:56:04.416Z,34.88
2017-09-16T09:57:04.397Z,35.56
2017-09-16T09:58:04.380Z,33.73
2017-09-16T09:59:04.365Z,33.83
2017-09-16T10:00:04.350Z,33.92
2017-09-16T10:01:04.332Z,33.75
2017-09-16T10:02:04.315Z,32.97
2017-09-16T10:03:04.294Z,33.01
2017-09-16T10:04:04.284Z,32.99
2017-09-16T10:05:04.265Z,32.02
2017-09-16T10:06:04.250Z,31.63
2017-09-16T10:07:04.236Z,31.05
2017-09-16T10:08:04.219Z,31.05
2017-09-16T10:09:04.201Z,31.05
2017-09-16T10:10:04.187Z,31.05
2017-09-16T10:11:04.175Z,30.00
2017-09-16T10:12:04.157Z,31.07
2017-09-16T10:13:04.241Z,30.58
2017-09-16T10:14:04.125Z,31.07
2017-09-16T10:15:04.112Z,30.58
2017-09-16T10:16:04.095Z,29.62
2017-09-16T10:17:04.080Z,28.96
2017-09-16T10:18:04.066Z,29.25
2017-09-16T10:19:04.052Z,29.05
2017-09-16T10:20:04.037Z,27.62
2017-09-16T10:21:04.021Z,28.32
2017-09-16T10:22:04.005Z,28.13
2017-09-16T10:23:03.992Z,27.45
2017-09-16T10:24:03.977Z,26.48
2017-09-16T10:25:03.960Z,25.23
2017-09-16T10:26:03.949Z,24.55
2017-09-16T10:27:03.933Z,24.63
2017-09-16T10:28:03.919Z,25.13
2017-09-16T10:29:03.905Z,24.94
2017-09-16T10:30:03.891Z,25.24
2017-09-16T10:31:03.876Z,25.13
2017-09-16T10:32:03.866Z,25.81
2017-09-16T10:33:03.847Z,25.45
2017-09-16T10:34:03.836Z,25.15
2017-09-16T10:35:03.821Z,24.94
2017-09-16T10:36:03.807Z,25.43
2017-09-16T10:37:03.794Z,25.05
2017-09-16T10:38:03.781Z,24.10
2017-09-16T10:39:03.770Z,24.78
2017-09-16T10:40:03.753Z,24.76
2017-09-16T10:41:03.738Z,23.60
2017-09-16T10:42:03.724Z,23.51
2017-09-16T10:43:03.808Z,22.63
2017-09-16T10:44:03.697Z,23.80
2017-09-16T10:45:03.682Z,23.62
2017-09-16T10:46:03.810Z,23.68
2017-09-16T10:47:03.656Z,25.05
2017-09-16T10:48:03.642Z,24.29
2017-09-16T10:49:03.627Z,23.12
2017-09-16T10:50:03.614Z,22.61
2017-09-16T10:51:03.597Z,24.52
2017-09-16T10:52:03.585Z,26.43
2017-09-16T10:53:03.568Z,27.57
2017-09-16T10:54:04.027Z,29.88
2017-09-16T10:55:03.537Z,29.00
2017-09-16T10:56:03.522Z,30.65
2017-09-16T10:57:03.505Z,29.12
2017-09-16T10:58:03.487Z,28.18
2017-09-16T10:59:03.472Z,25.86
2017-09-16T11:00:03.453Z,25.80
2017-09-16T11:01:03.437Z,22.51
2017-09-16T11:02:03.423Z,23.67
2017-09-16T11:03:03.410Z,24.13
2017-09-16T11:04:03.389Z,24.32
2017-09-16T11:05:03.376Z,25.37
2017-09-16T11:06:03.357Z,26.26
2017-09-16T11:07:03.340Z,25.78
2017-09-16T11:08:03.323Z,25.20
2017-09-16T11:09:03.775Z,23.67
2017-09-16T11:10:03.290Z,24.35
2017-09-16T11:11:03.274Z,24.41
2017-09-16T11:12:03.262Z,25.08
2017-09-16T11:13:03.238Z,26.43
2017-09-16T11:14:03.225Z,28.33
2017-09-16T11:15:03.207Z,29.28
2017-09-16T11:16:03.189Z,29.33
2017-09-16T11:17:03.168Z,26.44
2017-09-16T11:18:03.152Z,24.91
2017-09-16T11:19:03.134Z,24.93
2017-09-16T11:20:03.117Z,24.71
2017-09-16T11:21:03.097Z,26.25
2017-09-16T11:22:03.080Z,25.86
2017-09-16T11:23:03.065Z,27.89
2017-09-16T11:24:03.046Z,28.15
2017-09-16T11:25:03.584Z,27.86
2017-09-16T11:26:03.010Z,26.04
2017-09-16T11:27:02.992Z,25.18
2017-09-16T11:28:02.989Z,23.17
2017-09-16T11:29:02.957Z,25.10
2017-09-16T11:30:02.941Z,25.69
2017-09-16T11:31:02.928Z,23.27
2017-09-16T11:32:02.904Z,23.62
2017-09-16T11:33:02.888Z,25.74
2017-09-16T11:34:02.869Z,27.83
2017-09-16T11:35:02.852Z,29.24
2017-09-16T11:36:02.834Z,31.36
2017-09-16T11:37:02.814Z,30.88
2017-09-16T11:38:02.796Z,31.56
2017-09-16T11:39:02.779Z,30.86
2017-09-16T11:40:02.765Z,31.52
2017-09-16T11:41:02.740Z,33.52
2017-09-16T11:42:02.721Z,35.45
2017-09-16T11:43:02.702Z,35.80
2017-09-16T11:44:02.682Z,36.85
2017-09-16T11:45:02.662Z,37.98
2017-09-16T11:46:03.151Z,38.35
2017-09-16T11:47:02.622Z,38.64
2017-09-16T11:48:02.600Z,39.59
2017-09-16T11:49:02.579Z,39.68
2017-09-16T11:50:02.558Z,39.59
2017-09-16T11:51:02.537Z,39.61
2017-09-16T11:52:02.511Z,39.99
2017-09-16T11:53:02.500Z,39.89
2017-09-16T11:54:02.471Z,39.62
2017-09-16T11:55:02.451Z,38.12
2017-09-16T11:56:02.451Z,37.17
2017-09-16T11:57:02.408Z,34.70
2017-09-16T11:58:02.386Z,31.46
2017-09-16T11:59:02.366Z,30.89
2017-09-16T12:00:02.344Z,29.34
2017-09-16T12:01:02.323Z,30.02
2017-09-16T12:02:02.302Z,31.15
2017-09-16T12:03:02.284Z,31.33
2017-09-16T12:04:02.259Z,32.38
2017-09-16T12:05:02.239Z,33.91
2017-09-16T12:06:02.220Z,34.95
2017-09-16T12:07:02.198Z,34.76
2017-09-16T12:08:02.178Z,36.09
2017-09-16T12:09:02.157Z,38.41
2017-09-16T12:10:02.134Z,37.13
2017-09-16T12:11:02.113Z,37.13
2017-09-16T12:12:02.129Z,37.98
2017-09-16T12:13:02.068Z,37.02
2017-09-16T12:14:02.049Z,36.85
2017-09-16T12:15:02.026Z,35.98
2017-09-16T12:16:02.006Z,38.39
2017-09-16T12:17:01.980Z,38.68
2017-09-16T12:18:01.960Z,36.73
2017-09-16T12:19:01.936Z,37.98
2017-09-16T12:20:01.916Z,38.54
2017-09-16T12:21:01.892Z,39.70
2017-09-16T12:22:01.873Z,40.11
2017-09-16T12:23:01.848Z,37.63
2017-09-16T12:24:01.830Z,36.57
2017-09-16T12:25:01.802Z,35.53
2017-09-16T12:26:01.782Z,35.71
2017-09-16T12:27:01.763Z,35.90
2017-09-16T12:28:01.737Z,36.09
2017-09-16T12:29:01.720Z,36.94
2017-09-16T12:30:01.693Z,36.85
2017-09-16T12:31:01.671Z,36.75
2017-09-16T12:32:01.649Z,36.75
2017-09-16T12:33:01.625Z,36.85
2017-09-16T12:34:01.603Z,36.77
2017-09-16T12:35:01.582Z,36.42
2017-09-16T12:36:01.562Z,35.02
2017-09-16T12:37:01.539Z,31.57
2017-09-16T12:38:01.520Z,30.35
2017-09-16T12:39:01.496Z,27.21
2017-09-16T12:40:01.478Z,25.29
2017-09-16T12:41:01.456Z,21.72
2017-09-16T12:42:01.438Z,21.17
2017-09-16T12:43:01.417Z,20.40
2017-09-16T12:44:01.401Z,20.23
2017-09-16T12:45:01.387Z,19.85
2017-09-16T12:46:01.367Z,19.17
2017-09-16T12:47:01.346Z,19.57
2017-09-16T12:48:01.332Z,17.70
2017-09-16T12:49:01.312Z,19.56
2017-09-16T12:50:01.291Z,19.74
2017-09-16T12:51:01.280Z,21.28
2017-09-16T12:52:01.261Z,20.67